NAO YMMB-YWSL
Flight info
| Callsign | NAO |
|---|---|
| Flight time | 0h 23m |
| Altitude | 15000 |
| Route | MB DCT BULKO DCT ESL |
| Aircraft | B350/L-SDFGRW/S |
Departure
| Time | 2026-05-06 02:14 |
|---|---|
| Airport | Melbourne Moorabbin Airport (YMMB) |
Arrival
| Time | 2026-05-06 02:38 |
|---|---|
| Airport | West Sale Airport (YWSL) |
| Time | Latitude | Longitude | Altitude | Speed | Heading |
|---|---|---|---|---|---|
| 2026-05-06 01:52 | -37.97478 | 145.09479 | 64 ft | 0 kts | 102° |
| 2026-05-06 02:07 | -37.97479 | 145.09481 | 55 ft | 1 kts | 102° |
| 2026-05-06 02:07 | -37.97456 | 145.09494 | 53 ft | 7 kts | 4° |
| 2026-05-06 02:07 | -37.97424 | 145.09517 | 51 ft | 5 kts | 90° |
| 2026-05-06 02:07 | -37.97429 | 145.09580 | 50 ft | 9 kts | 98° |
| 2026-05-06 02:08 | -37.97477 | 145.09623 | 52 ft | 12 kts | 174° |
| 2026-05-06 02:08 | -37.97553 | 145.09629 | 48 ft | 13 kts | 174° |
| 2026-05-06 02:08 | -37.97572 | 145.09632 | 48 ft | 0 kts | 174° |
| 2026-05-06 02:08 | -37.97603 | 145.09634 | 47 ft | 10 kts | 176° |
| 2026-05-06 02:09 | -37.97688 | 145.09641 | 47 ft | 14 kts | 176° |
| 2026-05-06 02:09 | -37.97800 | 145.09651 | 46 ft | 18 kts | 175° |
| 2026-05-06 02:09 | -37.97920 | 145.09662 | 43 ft | 18 kts | 175° |
| 2026-05-06 02:09 | -37.98035 | 145.09673 | 43 ft | 10 kts | 176° |
| 2026-05-06 02:10 | -37.98105 | 145.09679 | 45 ft | 10 kts | 176° |
| 2026-05-06 02:10 | -37.98154 | 145.09682 | 45 ft | 11 kts | 177° |
| 2026-05-06 02:10 | -37.98239 | 145.09688 | 44 ft | 13 kts | 175° |
| 2026-05-06 02:10 | -37.98372 | 145.09721 | 42 ft | 15 kts | 126° |
| 2026-05-06 02:11 | -37.98381 | 145.09805 | 42 ft | 15 kts | 85° |
| 2026-05-06 02:11 | -37.98372 | 145.09955 | 39 ft | 0 kts | 85° |
| 2026-05-06 02:13 | -37.98371 | 145.09968 | 40 ft | 6 kts | 86° |
| 2026-05-06 02:13 | -37.98341 | 145.10031 | 37 ft | 7 kts | 353° |
| 2026-05-06 02:13 | -37.98334 | 145.10030 | 37 ft | 0 kts | 355° |
| 2026-05-06 02:14 | -37.98258 | 145.10023 | 40 ft | 47 kts | 356° |
| 2026-05-06 02:14 | -37.97654 | 145.09965 | 91 ft | 117 kts | 355° |
| 2026-05-06 02:14 | -37.96712 | 145.09907 | 409 ft | 155 kts | 357° |
| 2026-05-06 02:14 | -37.95525 | 145.09922 | 699 ft | 186 kts | 3° |
| 2026-05-06 02:15 | -37.94283 | 145.10650 | 1004 ft | 213 kts | 41° |
| 2026-05-06 02:15 | -37.93538 | 145.12338 | 1305 ft | 232 kts | 76° |
| 2026-05-06 02:15 | -37.93676 | 145.14399 | 1618 ft | 244 kts | 110° |
| 2026-05-06 02:15 | -37.94654 | 145.16178 | 1993 ft | 249 kts | 135° |
| 2026-05-06 02:16 | -37.95903 | 145.17687 | 2464 ft | 247 kts | 138° |
| 2026-05-06 02:16 | -37.97150 | 145.19202 | 2932 ft | 249 kts | 138° |
| 2026-05-06 02:16 | -37.98379 | 145.20707 | 3392 ft | 240 kts | 138° |
| 2026-05-06 02:16 | -37.99398 | 145.22321 | 3849 ft | 233 kts | 114° |
| 2026-05-06 02:17 | -37.99661 | 145.24302 | 4313 ft | 226 kts | 89° |
| 2026-05-06 02:17 | -37.99778 | 145.26276 | 4773 ft | 223 kts | 99° |
| 2026-05-06 02:17 | -38.00131 | 145.28187 | 5233 ft | 222 kts | 105° |
| 2026-05-06 02:17 | -38.00521 | 145.30070 | 5683 ft | 220 kts | 104° |
| 2026-05-06 02:18 | -38.00879 | 145.31954 | 6139 ft | 219 kts | 104° |
| 2026-05-06 02:18 | -38.01230 | 145.33834 | 6601 ft | 219 kts | 104° |
| 2026-05-06 02:18 | -38.01577 | 145.35692 | 7037 ft | 219 kts | 104° |
| 2026-05-06 02:18 | -38.01932 | 145.37572 | 7465 ft | 219 kts | 103° |
| 2026-05-06 02:19 | -38.02287 | 145.39457 | 7910 ft | 220 kts | 103° |
| 2026-05-06 02:19 | -38.02641 | 145.41347 | 8358 ft | 221 kts | 103° |
| 2026-05-06 02:19 | -38.02998 | 145.43245 | 8820 ft | 221 kts | 102° |
| 2026-05-06 02:19 | -38.03353 | 145.45146 | 9280 ft | 222 kts | 102° |
| 2026-05-06 02:20 | -38.04069 | 145.48970 | 10204 ft | 224 kts | 102° |
| 2026-05-06 02:20 | -38.04430 | 145.50898 | 10628 ft | 225 kts | 101° |
| 2026-05-06 02:20 | -38.04789 | 145.52832 | 11058 ft | 226 kts | 101° |
| 2026-05-06 02:21 | -38.05153 | 145.54775 | 11507 ft | 227 kts | 101° |
| 2026-05-06 02:21 | -38.05521 | 145.56752 | 11843 ft | 233 kts | 101° |
| 2026-05-06 02:21 | -38.05896 | 145.58774 | 12212 ft | 237 kts | 101° |
| 2026-05-06 02:21 | -38.06279 | 145.60829 | 12571 ft | 241 kts | 101° |
| 2026-05-06 02:22 | -38.06662 | 145.62889 | 12921 ft | 244 kts | 101° |
| 2026-05-06 02:22 | -38.07054 | 145.65002 | 13300 ft | 247 kts | 101° |
| 2026-05-06 02:22 | -38.07449 | 145.67137 | 13670 ft | 249 kts | 101° |
| 2026-05-06 02:22 | -38.07849 | 145.69290 | 14032 ft | 251 kts | 101° |
| 2026-05-06 02:23 | -38.08249 | 145.71456 | 14365 ft | 253 kts | 101° |
| 2026-05-06 02:23 | -38.08651 | 145.73634 | 14702 ft | 254 kts | 101° |
| 2026-05-06 02:23 | -38.09055 | 145.75822 | 15038 ft | 255 kts | 100° |
| 2026-05-06 02:23 | -38.09467 | 145.78067 | 15119 ft | 268 kts | 100° |
| 2026-05-06 02:24 | -38.09901 | 145.80431 | 15129 ft | 281 kts | 101° |
| 2026-05-06 02:24 | -38.10353 | 145.82881 | 15133 ft | 290 kts | 101° |
| 2026-05-06 02:24 | -38.10817 | 145.85405 | 15134 ft | 296 kts | 101° |
| 2026-05-06 02:24 | -38.11290 | 145.87981 | 15134 ft | 301 kts | 101° |
| 2026-05-06 02:25 | -38.11761 | 145.90555 | 15131 ft | 305 kts | 101° |
| 2026-05-06 02:25 | -38.12242 | 145.93185 | 15129 ft | 307 kts | 101° |
| 2026-05-06 02:25 | -38.12727 | 145.95833 | 15124 ft | 309 kts | 101° |
| 2026-05-06 02:25 | -38.13212 | 145.98496 | 15130 ft | 310 kts | 100° |
| 2026-05-06 02:26 | -38.13699 | 146.01171 | 15050 ft | 312 kts | 101° |
| 2026-05-06 02:26 | -38.14191 | 146.03867 | 14709 ft | 316 kts | 101° |
| 2026-05-06 02:26 | -38.14688 | 146.06611 | 14298 ft | 321 kts | 101° |
| 2026-05-06 02:26 | -38.15159 | 146.09405 | 13865 ft | 324 kts | 96° |
| 2026-05-06 02:27 | -38.15218 | 146.12257 | 13415 ft | 322 kts | 81° |
| 2026-05-06 02:27 | -38.14898 | 146.15052 | 12980 ft | 318 kts | 77° |
| 2026-05-06 02:27 | -38.14573 | 146.17813 | 12566 ft | 315 kts | 79° |
| 2026-05-06 02:27 | -38.14332 | 146.20570 | 12147 ft | 313 kts | 81° |
| 2026-05-06 02:28 | -38.14093 | 146.23302 | 11733 ft | 310 kts | 79° |
| 2026-05-06 02:28 | -38.13817 | 146.26014 | 11328 ft | 308 kts | 79° |
| 2026-05-06 02:28 | -38.13550 | 146.28705 | 10924 ft | 307 kts | 80° |
| 2026-05-06 02:28 | -38.13298 | 146.31386 | 10521 ft | 305 kts | 80° |
| 2026-05-06 02:29 | -38.13039 | 146.34003 | 10124 ft | 304 kts | 80° |
| 2026-05-06 02:29 | -38.12782 | 146.36661 | 9702 ft | 302 kts | 80° |
| 2026-05-06 02:29 | -38.12526 | 146.39296 | 9299 ft | 300 kts | 80° |
| 2026-05-06 02:29 | -38.12277 | 146.41915 | 8901 ft | 297 kts | 81° |
| 2026-05-06 02:30 | -38.12023 | 146.44476 | 8515 ft | 284 kts | 80° |
| 2026-05-06 02:30 | -38.11778 | 146.46911 | 8075 ft | 273 kts | 81° |
| 2026-05-06 02:30 | -38.11550 | 146.49242 | 7694 ft | 259 kts | 80° |
| 2026-05-06 02:30 | -38.11336 | 146.51459 | 7353 ft | 246 kts | 80° |
| 2026-05-06 02:31 | -38.11128 | 146.53565 | 7042 ft | 236 kts | 80° |
| 2026-05-06 02:31 | -38.10925 | 146.55575 | 6730 ft | 228 kts | 80° |
| 2026-05-06 02:31 | -38.10730 | 146.57541 | 6434 ft | 221 kts | 81° |
| 2026-05-06 02:31 | -38.10543 | 146.59460 | 6132 ft | 216 kts | 80° |
| 2026-05-06 02:32 | -38.10355 | 146.61328 | 5842 ft | 211 kts | 80° |
| 2026-05-06 02:32 | -38.10172 | 146.63151 | 5570 ft | 205 kts | 81° |
| 2026-05-06 02:32 | -38.09995 | 146.64927 | 5308 ft | 201 kts | 81° |
| 2026-05-06 02:32 | -38.09819 | 146.66687 | 4989 ft | 200 kts | 81° |
| 2026-05-06 02:33 | -38.09645 | 146.68432 | 4648 ft | 199 kts | 81° |
| 2026-05-06 02:33 | -38.09601 | 146.69593 | 4424 ft | 199 kts | 91° |
| 2026-05-06 02:33 | -38.09786 | 146.73707 | 3643 ft | 200 kts | 91° |
| 2026-05-06 02:34 | -38.09824 | 146.75473 | 3313 ft | 201 kts | 90° |
| 2026-05-06 02:34 | -38.09864 | 146.77243 | 2982 ft | 200 kts | 91° |
| 2026-05-06 02:34 | -38.09721 | 146.78951 | 2694 ft | 196 kts | 67° |
| 2026-05-06 02:34 | -38.09152 | 146.80509 | 2428 ft | 194 kts | 62° |
| 2026-05-06 02:35 | -38.08588 | 146.82033 | 2181 ft | 188 kts | 64° |
| 2026-05-06 02:35 | -38.08111 | 146.83571 | 1928 ft | 186 kts | 66° |
| 2026-05-06 02:35 | -38.07706 | 146.85121 | 1685 ft | 185 kts | 83° |
| 2026-05-06 02:35 | -38.07782 | 146.86658 | 1474 ft | 163 kts | 101° |
| 2026-05-06 02:36 | -38.07965 | 146.88003 | 1271 ft | 148 kts | 98° |
| 2026-05-06 02:36 | -38.08115 | 146.89226 | 1080 ft | 134 kts | 98° |
| 2026-05-06 02:36 | -38.08275 | 146.90396 | 903 ft | 136 kts | 100° |
| 2026-05-06 02:36 | -38.08432 | 146.91586 | 727 ft | 137 kts | 99° |
| 2026-05-06 02:37 | -38.08585 | 146.92769 | 549 ft | 133 kts | 99° |
| 2026-05-06 02:37 | -38.08735 | 146.93901 | 380 ft | 131 kts | 99° |
| 2026-05-06 02:37 | -38.08874 | 146.94988 | 191 ft | 119 kts | 100° |
| 2026-05-06 02:37 | -38.09010 | 146.95967 | 65 ft | 102 kts | 99° |
| 2026-05-06 02:38 | -38.09108 | 146.96735 | 72 ft | 64 kts | 99° |
| 2026-05-06 02:38 | -38.09162 | 146.97123 | 77 ft | 34 kts | 100° |
| 2026-05-06 02:38 | -38.09198 | 146.97351 | 73 ft | 18 kts | 131° |
| 2026-05-06 02:38 | -38.09263 | 146.97352 | 76 ft | 0 kts | 234° |
| 2026-05-06 02:39 | -38.09280 | 146.97337 | 73 ft | 9 kts | 213° |
| 2026-05-06 02:39 | -38.09310 | 146.97277 | 75 ft | 8 kts | 262° |
| 2026-05-06 02:39 | -38.09316 | 146.97218 | 78 ft | 5 kts | 229° |
| 2026-05-06 02:39 | -38.09329 | 146.97209 | 76 ft | 0 kts | 201° |